RYR218 LQSA-LDZA
Flight info
| Callsign | RYR218 |
|---|---|
| Flight time | 0h 36m |
| Altitude | 20000 |
| Route | BOSNA L608 KOMAR L187 TEBLI |
| Aircraft | B38M/M-SDE1FGHILORVWXY/HB1 |
Departure
| Time | 2026-04-23 09:10 |
|---|---|
| Airport | Sarajevo International Airport (LQSA) |
Arrival
| Time | 2026-04-23 09:47 |
|---|---|
| Airport | Zagreb Franjo Tuđman International Airport (LDZA) |
| Time | Latitude | Longitude | Altitude | Speed | Heading |
|---|---|---|---|---|---|
| 2026-04-23 08:50 | 43.82526 | 18.33684 | 1691 ft | 0 kts | 304° |
| 2026-04-23 09:02 | 43.82525 | 18.33680 | 1691 ft | 1 kts | 261° |
| 2026-04-23 09:02 | 43.82498 | 18.33665 | 1690 ft | 6 kts | 195° |
| 2026-04-23 09:03 | 43.82468 | 18.33659 | 1691 ft | 1 kts | 185° |
| 2026-04-23 09:03 | 43.82463 | 18.33659 | 1691 ft | 1 kts | 185° |
| 2026-04-23 09:03 | 43.82458 | 18.33658 | 1691 ft | 1 kts | 182° |
| 2026-04-23 09:03 | 43.82455 | 18.33659 | 1694 ft | 0 kts | 171° |
| 2026-04-23 09:04 | 43.82449 | 18.33662 | 1693 ft | 0 kts | 153° |
| 2026-04-23 09:04 | 43.82446 | 18.33668 | 1692 ft | 2 kts | 127° |
| 2026-04-23 09:04 | 43.82427 | 18.33711 | 1693 ft | 3 kts | 118° |
| 2026-04-23 09:05 | 43.82424 | 18.33718 | 1693 ft | 0 kts | 118° |
| 2026-04-23 09:05 | 43.82421 | 18.33724 | 1693 ft | 2 kts | 118° |
| 2026-04-23 09:06 | 43.82413 | 18.33748 | 1693 ft | 4 kts | 116° |
| 2026-04-23 09:06 | 43.82398 | 18.33790 | 1695 ft | 6 kts | 116° |
| 2026-04-23 09:06 | 43.82377 | 18.33845 | 1697 ft | 7 kts | 117° |
| 2026-04-23 09:06 | 43.82352 | 18.33911 | 1701 ft | 9 kts | 117° |
| 2026-04-23 09:07 | 43.82319 | 18.34000 | 1702 ft | 12 kts | 116° |
| 2026-04-23 09:07 | 43.82274 | 18.34120 | 1703 ft | 15 kts | 118° |
| 2026-04-23 09:07 | 43.82221 | 18.34259 | 1707 ft | 18 kts | 118° |
| 2026-04-23 09:07 | 43.82160 | 18.34423 | 1708 ft | 20 kts | 117° |
| 2026-04-23 09:08 | 43.82094 | 18.34581 | 1713 ft | 18 kts | 134° |
| 2026-04-23 09:08 | 43.82021 | 18.34622 | 1715 ft | 10 kts | 184° |
| 2026-04-23 09:08 | 43.81953 | 18.34592 | 1714 ft | 11 kts | 192° |
| 2026-04-23 09:08 | 43.81925 | 18.34565 | 1713 ft | 1 kts | 269° |
| 2026-04-23 09:09 | 43.81928 | 18.34560 | 1713 ft | 0 kts | 298° |
| 2026-04-23 09:09 | 43.81930 | 18.34554 | 1712 ft | 0 kts | 299° |
| 2026-04-23 09:09 | 43.81958 | 18.34485 | 1710 ft | 35 kts | 298° |
| 2026-04-23 09:09 | 43.82210 | 18.33820 | 1698 ft | 118 kts | 298° |
| 2026-04-23 09:10 | 43.82707 | 18.32536 | 1777 ft | 175 kts | 302° |
| 2026-04-23 09:10 | 43.83805 | 18.29647 | 3587 ft | 183 kts | 311° |
| 2026-04-23 09:10 | 43.84789 | 18.28515 | 4550 ft | 183 kts | 335° |
| 2026-04-23 09:11 | 43.86028 | 18.28229 | 5313 ft | 189 kts | 1° |
| 2026-04-23 09:11 | 43.87381 | 18.28014 | 5996 ft | 203 kts | 349° |
| 2026-04-23 09:11 | 43.88839 | 18.27585 | 6514 ft | 229 kts | 349° |
| 2026-04-23 09:11 | 43.90501 | 18.27097 | 6959 ft | 253 kts | 349° |
| 2026-04-23 09:12 | 43.92208 | 18.26600 | 8154 ft | 247 kts | 349° |
| 2026-04-23 09:12 | 43.93889 | 18.26116 | 9236 ft | 252 kts | 350° |
| 2026-04-23 09:12 | 43.95646 | 18.25670 | 10127 ft | 257 kts | 356° |
| 2026-04-23 09:12 | 43.97429 | 18.25450 | 11007 ft | 262 kts | 357° |
| 2026-04-23 09:13 | 43.99356 | 18.25205 | 11264 ft | 289 kts | 357° |
| 2026-04-23 09:13 | 44.01331 | 18.24940 | 12391 ft | 282 kts | 357° |
| 2026-04-23 09:13 | 44.03268 | 18.24672 | 13489 ft | 279 kts | 358° |
| 2026-04-23 09:13 | 44.04558 | 18.24490 | 14007 ft | 284 kts | 356° |
| 2026-04-23 09:14 | 44.06498 | 18.23688 | 14500 ft | 305 kts | 335° |
| 2026-04-23 09:14 | 44.08209 | 18.21759 | 14827 ft | 331 kts | 315° |
| 2026-04-23 09:14 | 44.09683 | 18.19373 | 15941 ft | 313 kts | 316° |
| 2026-04-23 09:14 | 44.11092 | 18.17176 | 17233 ft | 299 kts | 317° |
| 2026-04-23 09:15 | 44.12482 | 18.15002 | 17915 ft | 306 kts | 317° |
| 2026-04-23 09:15 | 44.13964 | 18.12678 | 17580 ft | 334 kts | 316° |
| 2026-04-23 09:15 | 44.15478 | 18.10278 | 18567 ft | 326 kts | 316° |
| 2026-04-23 09:15 | 44.16991 | 18.07871 | 19040 ft | 335 kts | 317° |
| 2026-04-23 09:16 | 44.18505 | 18.05377 | 19644 ft | 337 kts | 314° |
| 2026-04-23 09:16 | 44.20048 | 18.02903 | 20122 ft | 343 kts | 318° |
| 2026-04-23 09:16 | 44.21687 | 18.00379 | 20150 ft | 361 kts | 317° |
| 2026-04-23 09:16 | 44.23400 | 17.97703 | 20149 ft | 376 kts | 316° |
| 2026-04-23 09:17 | 44.25145 | 17.94951 | 20174 ft | 382 kts | 316° |
| 2026-04-23 09:17 | 44.26887 | 17.92188 | 20190 ft | 385 kts | 316° |
| 2026-04-23 09:17 | 44.28657 | 17.89373 | 20208 ft | 386 kts | 316° |
| 2026-04-23 09:17 | 44.30421 | 17.86561 | 20192 ft | 385 kts | 316° |
| 2026-04-23 09:18 | 44.32188 | 17.83745 | 20224 ft | 386 kts | 316° |
| 2026-04-23 09:18 | 44.33953 | 17.80927 | 20211 ft | 386 kts | 316° |
| 2026-04-23 09:18 | 44.35722 | 17.78102 | 20209 ft | 386 kts | 316° |
| 2026-04-23 09:18 | 44.37478 | 17.75281 | 20195 ft | 386 kts | 316° |
| 2026-04-23 09:19 | 44.39242 | 17.72438 | 20219 ft | 386 kts | 316° |
| 2026-04-23 09:19 | 44.40999 | 17.69604 | 20211 ft | 386 kts | 316° |
| 2026-04-23 09:19 | 44.42756 | 17.66766 | 20199 ft | 386 kts | 316° |
| 2026-04-23 09:19 | 44.44515 | 17.63922 | 20198 ft | 386 kts | 316° |
| 2026-04-23 09:20 | 44.46276 | 17.61074 | 20205 ft | 386 kts | 316° |
| 2026-04-23 09:20 | 44.48032 | 17.58231 | 20214 ft | 386 kts | 316° |
| 2026-04-23 09:20 | 44.49790 | 17.55382 | 20209 ft | 386 kts | 316° |
| 2026-04-23 09:20 | 44.51544 | 17.52534 | 20212 ft | 386 kts | 316° |
| 2026-04-23 09:21 | 44.53302 | 17.49679 | 20209 ft | 386 kts | 316° |
| 2026-04-23 09:21 | 44.55054 | 17.46829 | 20215 ft | 386 kts | 316° |
| 2026-04-23 09:21 | 44.56811 | 17.43971 | 20207 ft | 386 kts | 316° |
| 2026-04-23 09:21 | 44.58562 | 17.41118 | 20211 ft | 386 kts | 316° |
| 2026-04-23 09:22 | 44.60292 | 17.38297 | 20210 ft | 386 kts | 316° |
| 2026-04-23 09:22 | 44.62046 | 17.35434 | 20217 ft | 386 kts | 316° |
| 2026-04-23 09:22 | 44.63801 | 17.32584 | 20213 ft | 386 kts | 316° |
| 2026-04-23 09:22 | 44.65562 | 17.29745 | 20215 ft | 386 kts | 316° |
| 2026-04-23 09:23 | 44.67328 | 17.26892 | 20213 ft | 386 kts | 316° |
| 2026-04-23 09:23 | 44.69094 | 17.24036 | 20216 ft | 386 kts | 316° |
| 2026-04-23 09:23 | 44.70854 | 17.21184 | 20215 ft | 387 kts | 316° |
| 2026-04-23 09:23 | 44.72599 | 17.18355 | 20223 ft | 387 kts | 316° |
| 2026-04-23 09:24 | 44.74358 | 17.15500 | 20221 ft | 387 kts | 316° |
| 2026-04-23 09:24 | 44.76125 | 17.12629 | 20229 ft | 387 kts | 316° |
| 2026-04-23 09:24 | 44.77884 | 17.09770 | 20224 ft | 386 kts | 316° |
| 2026-04-23 09:24 | 44.79640 | 17.06911 | 20230 ft | 386 kts | 316° |
| 2026-04-23 09:25 | 44.81402 | 17.04040 | 20236 ft | 386 kts | 316° |
| 2026-04-23 09:25 | 44.83164 | 17.01167 | 20220 ft | 386 kts | 316° |
| 2026-04-23 09:25 | 44.84916 | 16.98299 | 20227 ft | 386 kts | 316° |
| 2026-04-23 09:25 | 44.86671 | 16.95424 | 20228 ft | 386 kts | 316° |
| 2026-04-23 09:26 | 44.88417 | 16.92561 | 20226 ft | 386 kts | 315° |
| 2026-04-23 09:26 | 44.90167 | 16.89689 | 20220 ft | 386 kts | 315° |
| 2026-04-23 09:26 | 44.91915 | 16.86816 | 20227 ft | 386 kts | 315° |
| 2026-04-23 09:26 | 44.93662 | 16.83943 | 20219 ft | 385 kts | 315° |
| 2026-04-23 09:27 | 44.95527 | 16.81273 | 20209 ft | 377 kts | 329° |
| 2026-04-23 09:27 | 44.97794 | 16.79558 | 20236 ft | 368 kts | 343° |
| 2026-04-23 09:27 | 45.00126 | 16.78245 | 20278 ft | 352 kts | 343° |
| 2026-04-23 09:27 | 45.02355 | 16.77021 | 20202 ft | 337 kts | 344° |
| 2026-04-23 09:28 | 45.04507 | 16.75860 | 20094 ft | 324 kts | 344° |
| 2026-04-23 09:28 | 45.06606 | 16.74743 | 19770 ft | 321 kts | 344° |
| 2026-04-23 09:28 | 45.08677 | 16.73648 | 19411 ft | 324 kts | 344° |
| 2026-04-23 09:28 | 45.10797 | 16.72529 | 19027 ft | 325 kts | 344° |
| 2026-04-23 09:29 | 45.12914 | 16.71411 | 18659 ft | 325 kts | 344° |
| 2026-04-23 09:29 | 45.15031 | 16.70293 | 18240 ft | 324 kts | 343° |
| 2026-04-23 09:29 | 45.17141 | 16.69177 | 17813 ft | 322 kts | 344° |
| 2026-04-23 09:29 | 45.19229 | 16.68054 | 17402 ft | 321 kts | 340° |
| 2026-04-23 09:30 | 45.21088 | 16.66252 | 16980 ft | 327 kts | 322° |
| 2026-04-23 09:30 | 45.22751 | 16.64097 | 16629 ft | 321 kts | 323° |
| 2026-04-23 09:30 | 45.24400 | 16.61995 | 16276 ft | 316 kts | 323° |
| 2026-04-23 09:30 | 45.26021 | 16.59906 | 15914 ft | 313 kts | 323° |
| 2026-04-23 09:31 | 45.27622 | 16.57827 | 15542 ft | 312 kts | 323° |
| 2026-04-23 09:31 | 45.29228 | 16.55733 | 15171 ft | 314 kts | 323° |
| 2026-04-23 09:31 | 45.30838 | 16.53629 | 14811 ft | 315 kts | 323° |
| 2026-04-23 09:31 | 45.32446 | 16.51523 | 14440 ft | 314 kts | 323° |
| 2026-04-23 09:32 | 45.34042 | 16.49430 | 14201 ft | 308 kts | 323° |
| 2026-04-23 09:32 | 45.35512 | 16.47245 | 13926 ft | 309 kts | 309° |
| 2026-04-23 09:32 | 45.36336 | 16.44386 | 13457 ft | 321 kts | 283° |
| 2026-04-23 09:32 | 45.36245 | 16.41240 | 13061 ft | 328 kts | 258° |
| 2026-04-23 09:33 | 45.35234 | 16.38333 | 12681 ft | 331 kts | 232° |
| 2026-04-23 09:33 | 45.33653 | 16.35970 | 12313 ft | 329 kts | 227° |
| 2026-04-23 09:33 | 45.32085 | 16.33605 | 11930 ft | 327 kts | 228° |
| 2026-04-23 09:33 | 45.30537 | 16.31251 | 11531 ft | 325 kts | 229° |
| 2026-04-23 09:34 | 45.29002 | 16.28910 | 11153 ft | 323 kts | 228° |
| 2026-04-23 09:34 | 45.27473 | 16.26581 | 10778 ft | 321 kts | 229° |
| 2026-04-23 09:34 | 45.25961 | 16.24254 | 10430 ft | 318 kts | 232° |
| 2026-04-23 09:34 | 45.24925 | 16.21597 | 10237 ft | 301 kts | 258° |
| 2026-04-23 09:35 | 45.24732 | 16.18736 | 9925 ft | 287 kts | 282° |
| 2026-04-23 09:35 | 45.25313 | 16.16114 | 9551 ft | 274 kts | 304° |
| 2026-04-23 09:35 | 45.26422 | 16.13994 | 9217 ft | 265 kts | 316° |
| 2026-04-23 09:35 | 45.27663 | 16.12082 | 8874 ft | 261 kts | 318° |
| 2026-04-23 09:36 | 45.28925 | 16.10244 | 8546 ft | 258 kts | 319° |
| 2026-04-23 09:36 | 45.30196 | 16.08459 | 8227 ft | 254 kts | 320° |
| 2026-04-23 09:36 | 45.31449 | 16.06738 | 8056 ft | 247 kts | 320° |
| 2026-04-23 09:36 | 45.32695 | 16.05045 | 7929 ft | 251 kts | 320° |
| 2026-04-23 09:37 | 45.33970 | 16.03323 | 7739 ft | 255 kts | 320° |
| 2026-04-23 09:37 | 45.35249 | 16.01611 | 7567 ft | 256 kts | 320° |
| 2026-04-23 09:37 | 45.36544 | 15.99873 | 7413 ft | 255 kts | 320° |
| 2026-04-23 09:37 | 45.37842 | 15.98142 | 7165 ft | 256 kts | 320° |
| 2026-04-23 09:38 | 45.39140 | 15.96409 | 7002 ft | 254 kts | 320° |
| 2026-04-23 09:38 | 45.40425 | 15.94692 | 6905 ft | 254 kts | 319° |
| 2026-04-23 09:38 | 45.41714 | 15.92969 | 6848 ft | 255 kts | 319° |
| 2026-04-23 09:38 | 45.43001 | 15.91242 | 6754 ft | 254 kts | 319° |
| 2026-04-23 09:39 | 45.44286 | 15.89513 | 6627 ft | 253 kts | 319° |
| 2026-04-23 09:39 | 45.45572 | 15.87787 | 6509 ft | 253 kts | 319° |
| 2026-04-23 09:39 | 45.46843 | 15.86088 | 6321 ft | 256 kts | 319° |
| 2026-04-23 09:39 | 45.48141 | 15.84351 | 5983 ft | 255 kts | 319° |
| 2026-04-23 09:40 | 45.49432 | 15.82620 | 5611 ft | 254 kts | 319° |
| 2026-04-23 09:40 | 45.50714 | 15.80898 | 5279 ft | 253 kts | 318° |
| 2026-04-23 09:40 | 45.52023 | 15.79271 | 5042 ft | 246 kts | 330° |
| 2026-04-23 09:40 | 45.53596 | 15.78559 | 4833 ft | 233 kts | 1° |
| 2026-04-23 09:41 | 45.55093 | 15.79089 | 4841 ft | 215 kts | 25° |
| 2026-04-23 09:41 | 45.56317 | 15.80156 | 4833 ft | 200 kts | 35° |
| 2026-04-23 09:41 | 45.57354 | 15.81412 | 4615 ft | 190 kts | 40° |
| 2026-04-23 09:41 | 45.58280 | 15.82694 | 4438 ft | 180 kts | 43° |
| 2026-04-23 09:42 | 45.59130 | 15.83939 | 4278 ft | 173 kts | 43° |
| 2026-04-23 09:42 | 45.59970 | 15.85186 | 4109 ft | 176 kts | 43° |
| 2026-04-23 09:42 | 45.60828 | 15.86466 | 3876 ft | 177 kts | 43° |
| 2026-04-23 09:42 | 45.61652 | 15.87712 | 3649 ft | 168 kts | 44° |
| 2026-04-23 09:43 | 45.62450 | 15.88915 | 3473 ft | 168 kts | 42° |
| 2026-04-23 09:43 | 45.63265 | 15.90151 | 3183 ft | 173 kts | 43° |
| 2026-04-23 09:43 | 45.64102 | 15.91403 | 2866 ft | 168 kts | 43° |
| 2026-04-23 09:43 | 45.64884 | 15.92603 | 2566 ft | 166 kts | 43° |
| 2026-04-23 09:44 | 45.65644 | 15.93769 | 2497 ft | 147 kts | 43° |
| 2026-04-23 09:44 | 45.66417 | 15.94958 | 2653 ft | 176 kts | 44° |
| 2026-04-23 09:44 | 45.67324 | 15.96221 | 2901 ft | 186 kts | 38° |
| 2026-04-23 09:44 | 45.68358 | 15.97626 | 2223 ft | 226 kts | 44° |
| 2026-04-23 09:45 | 45.69344 | 15.99287 | 1725 ft | 203 kts | 49° |
| 2026-04-23 09:45 | 45.70205 | 16.00736 | 1375 ft | 180 kts | 44° |
| 2026-04-23 09:45 | 45.71052 | 16.01964 | 1024 ft | 162 kts | 43° |
| 2026-04-23 09:45 | 45.71786 | 16.03071 | 764 ft | 143 kts | 41° |
| 2026-04-23 09:46 | 45.72425 | 16.04044 | 563 ft | 131 kts | 42° |
| 2026-04-23 09:46 | 45.73053 | 16.05011 | 455 ft | 131 kts | 43° |
| 2026-04-23 09:46 | 45.73653 | 16.05941 | 386 ft | 125 kts | 42° |
| 2026-04-23 09:46 | 45.74208 | 16.06797 | 365 ft | 104 kts | 41° |
| 2026-04-23 09:47 | 45.74588 | 16.07322 | 363 ft | 58 kts | 46° |
| 2026-04-23 09:47 | 45.74627 | 16.07595 | 357 ft | 24 kts | 136° |
| 2026-04-23 09:47 | 45.74586 | 16.07641 | 362 ft | 1 kts | 146° |
| 2026-04-23 09:47 | 45.74577 | 16.07651 | 358 ft | 3 kts | 142° |
| 2026-04-23 09:48 | 45.74550 | 16.07681 | 357 ft | 8 kts | 141° |
| 2026-04-23 09:48 | 45.74491 | 16.07758 | 358 ft | 16 kts | 136° |
| 2026-04-23 09:48 | 45.74413 | 16.07865 | 358 ft | 11 kts | 135° |
| 2026-04-23 09:48 | 45.74370 | 16.07899 | 365 ft | 7 kts | 186° |
| 2026-04-23 09:49 | 45.74307 | 16.07845 | 364 ft | 15 kts | 224° |
| 2026-04-23 09:49 | 45.74225 | 16.07715 | 359 ft | 15 kts | 227° |
| 2026-04-23 09:49 | 45.74145 | 16.07595 | 362 ft | 14 kts | 224° |
| 2026-04-23 09:49 | 45.74097 | 16.07568 | 360 ft | 3 kts | 144° |
| 2026-04-23 09:50 | 45.74068 | 16.07610 | 357 ft | 10 kts | 133° |
| 2026-04-23 09:50 | 45.74051 | 16.07652 | 357 ft | 0 kts | 95° |